createdAt,value
2023-01-28T00:01:17.215Z,4.47
2023-01-28T00:03:43.854Z,4.59
2023-01-28T00:06:13.602Z,3.97
2023-01-28T00:08:40.918Z,4.52
2023-01-28T00:11:10.136Z,4.37
2023-01-28T00:13:36.603Z,4.53
2023-01-28T00:16:06.112Z,4.37
2023-01-28T00:18:33.531Z,4.52
2023-01-28T00:21:11.787Z,4.38
2023-01-28T00:23:40.582Z,4.48
2023-01-28T00:26:10.604Z,4.65
2023-01-28T00:28:37.054Z,4.53
2023-01-28T00:31:13.856Z,4.66
2023-01-28T00:33:40.267Z,4.71
2023-01-28T00:36:07.056Z,4.72
2023-01-28T00:38:34.373Z,3.87
2023-01-28T00:41:11.731Z,4.33
2023-01-28T00:43:38.729Z,4.73
2023-01-28T00:46:07.388Z,4.77
2023-01-28T00:48:35.294Z,4.78
2023-01-28T00:51:02.370Z,4.39
2023-01-28T00:53:29.344Z,4.04
2023-01-28T00:55:56.009Z,3.48
2023-01-28T00:58:24.124Z,4.19
2023-01-28T01:00:51.295Z,4.30
2023-01-28T01:03:18.537Z,4.51
2023-01-28T01:05:45.170Z,4.31
2023-01-28T01:08:11.896Z,4.15
2023-01-28T01:10:39.303Z,4.03
2023-01-28T01:13:06.850Z,4.76
2023-01-28T01:15:33.882Z,4.82
2023-01-28T01:18:00.357Z,4.87
2023-01-28T01:20:28.812Z,4.90
2023-01-28T01:22:56.545Z,3.56
2023-01-28T01:25:23.005Z,3.52
2023-01-28T01:27:50.223Z,3.71
2023-01-28T01:30:17.170Z,3.86
2023-01-28T01:32:43.745Z,4.02
2023-01-28T01:35:10.763Z,4.09
2023-01-28T01:37:37.762Z,3.94
2023-01-28T01:40:05.546Z,4.47
2023-01-28T01:42:33.325Z,4.09
2023-01-28T01:45:12.616Z,4.46
2023-01-28T01:47:46.023Z,4.40
2023-01-28T01:50:29.008Z,4.51
2023-01-28T01:53:01.856Z,4.14
2023-01-28T01:55:31.843Z,3.80
2023-01-28T01:58:02.747Z,3.77
2023-01-28T02:00:29.203Z,4.29
2023-01-28T02:02:56.707Z,4.61
2023-01-28T02:05:23.329Z,4.04
2023-01-28T02:07:55.047Z,3.92
2023-01-28T02:10:23.059Z,4.12
2023-01-28T02:12:56.350Z,3.59
2023-01-28T02:15:25.493Z,3.32
2023-01-28T02:17:52.662Z,3.63
2023-01-28T02:20:25.652Z,3.68
2023-01-28T02:23:14.264Z,3.93
2023-01-28T02:26:07.279Z,3.78
2023-01-28T02:28:55.473Z,3.53
2023-01-28T02:31:34.612Z,3.81
2023-01-28T02:34:23.533Z,3.91
2023-01-28T02:37:03.965Z,4.22
2023-01-28T02:39:36.031Z,3.88
2023-01-28T02:42:07.731Z,3.76
2023-01-28T02:44:34.153Z,3.50
2023-01-28T02:47:19.298Z,3.88
2023-01-28T02:49:55.108Z,3.86
2023-01-28T02:52:58.942Z,3.62
2023-01-28T02:55:31.469Z,3.99
2023-01-28T02:58:21.439Z,4.21
2023-01-28T03:00:54.842Z,4.83
2023-01-28T03:03:42.672Z,3.44
2023-01-28T03:06:14.933Z,4.10
2023-01-28T03:09:12.122Z,3.74
2023-01-28T03:12:17.736Z,3.64
2023-01-28T03:15:08.173Z,3.34
2023-01-28T03:18:17.094Z,4.12
2023-01-28T03:21:32.291Z,4.89
2023-01-28T03:24:21.691Z,4.33
2023-01-28T03:27:28.988Z,3.44
2023-01-28T03:30:17.337Z,3.30
2023-01-28T03:33:03.468Z,4.76
2023-01-28T03:35:51.692Z,4.92
2023-01-28T03:38:23.094Z,5.08
2023-01-28T03:41:00.103Z,5.10
2023-01-28T03:43:27.139Z,4.10
2023-01-28T03:45:55.438Z,3.61
2023-01-28T03:48:24.326Z,4.06
2023-01-28T03:50:51.953Z,4.71
2023-01-28T03:53:19.424Z,4.72
2023-01-28T03:55:48.540Z,3.81
2023-01-28T03:58:15.880Z,4.53
2023-01-28T04:00:43.344Z,4.42
2023-01-28T04:03:17.433Z,5.03
2023-01-28T04:06:01.743Z,4.96
2023-01-28T04:08:28.501Z,5.08
2023-01-28T04:10:55.328Z,5.06
2023-01-28T04:13:22.045Z,3.79
2023-01-28T04:15:48.848Z,4.27
2023-01-28T04:18:15.355Z,4.37
2023-01-28T04:20:41.830Z,3.90
2023-01-28T04:23:08.664Z,4.22
2023-01-28T04:25:35.268Z,4.31
2023-01-28T04:28:01.705Z,5.01
2023-01-28T04:30:28.265Z,4.84
2023-01-28T04:32:54.881Z,3.60
2023-01-28T04:35:21.340Z,4.06
2023-01-28T04:37:47.770Z,4.13
2023-01-28T04:40:14.280Z,4.33
2023-01-28T04:42:40.772Z,3.81
2023-01-28T04:45:07.915Z,3.59
2023-01-28T04:47:34.751Z,4.46
2023-01-28T04:50:01.175Z,3.84
2023-01-28T04:52:27.606Z,3.89
2023-01-28T04:54:54.034Z,4.57
2023-01-28T04:57:20.477Z,4.16
2023-01-28T04:59:46.885Z,4.31
2023-01-28T05:02:13.341Z,4.30
2023-01-28T05:04:39.775Z,3.78
2023-01-28T05:07:06.261Z,4.40
2023-01-28T05:09:32.735Z,4.30
2023-01-28T05:11:59.165Z,4.86
2023-01-28T05:14:25.569Z,3.94
2023-01-28T05:16:52.048Z,3.76
2023-01-28T05:19:18.504Z,4.57
2023-01-28T05:21:44.943Z,4.29
2023-01-28T05:24:11.951Z,5.01
2023-01-28T05:26:38.527Z,4.35
2023-01-28T05:29:04.936Z,4.37
2023-01-28T05:31:31.411Z,4.51
2023-01-28T05:33:58.025Z,3.90
2023-01-28T05:36:24.517Z,4.88
2023-01-28T05:38:51.021Z,4.81
2023-01-28T05:41:17.636Z,4.87
2023-01-28T05:43:44.061Z,4.97
2023-01-28T05:46:10.481Z,5.13
2023-01-28T05:48:36.972Z,3.84
2023-01-28T05:51:05.134Z,4.58
2023-01-28T05:53:32.367Z,4.54
2023-01-28T05:55:58.797Z,4.24
2023-01-28T05:58:27.066Z,4.90
2023-01-28T06:00:56.071Z,4.87
2023-01-28T06:03:22.539Z,5.05
2023-01-28T06:05:49.081Z,5.21
2023-01-28T06:08:15.670Z,5.05
2023-01-28T06:10:42.123Z,4.88
2023-01-28T06:13:08.556Z,3.00
2023-01-28T06:15:35.049Z,4.49
2023-01-28T06:18:01.619Z,4.90
2023-01-28T06:20:28.188Z,3.91
2023-01-28T06:22:54.595Z,4.79
2023-01-28T06:25:21.106Z,3.78
2023-01-28T06:27:47.574Z,3.93
2023-01-28T06:30:14.504Z,4.93
2023-01-28T06:32:41.278Z,5.03
2023-01-28T06:35:08.792Z,5.24
2023-01-28T06:37:35.244Z,5.05
2023-01-28T06:40:01.935Z,4.29
2023-01-28T06:42:28.405Z,3.10
2023-01-28T06:44:54.843Z,3.77
2023-01-28T06:47:21.358Z,4.10
2023-01-28T06:49:47.760Z,4.21
2023-01-28T06:52:14.218Z,3.70
2023-01-28T06:54:40.621Z,3.80
2023-01-28T06:57:07.056Z,4.20
2023-01-28T06:59:33.489Z,3.77
2023-01-28T07:02:00.005Z,4.16
2023-01-28T07:04:26.445Z,4.17
2023-01-28T07:06:52.855Z,4.07
2023-01-28T07:09:19.261Z,3.52
2023-01-28T07:11:45.745Z,4.21
2023-01-28T07:14:12.187Z,4.85
2023-01-28T07:16:38.622Z,4.07
2023-01-28T07:19:05.077Z,4.19
2023-01-28T07:21:31.499Z,3.16
2023-01-28T07:23:58.071Z,4.56
2023-01-28T07:26:24.628Z,4.45
2023-01-28T07:28:51.040Z,4.93
2023-01-28T07:31:17.608Z,4.99
2023-01-28T07:33:44.128Z,4.72
2023-01-28T07:36:10.550Z,4.47
2023-01-28T07:38:37.030Z,4.31
2023-01-28T07:41:03.534Z,3.29
2023-01-28T07:43:29.987Z,3.91
2023-01-28T07:45:56.403Z,4.05
2023-01-28T07:48:22.841Z,3.85
2023-01-28T07:50:49.591Z,4.07
2023-01-28T07:53:17.564Z,4.16
2023-01-28T07:55:44.116Z,4.24
2023-01-28T07:58:11.601Z,4.63
2023-01-28T08:00:38.801Z,4.64
2023-01-28T08:03:08.162Z,4.03
2023-01-28T08:05:44.660Z,4.64
2023-01-28T08:08:11.323Z,4.49
2023-01-28T08:10:38.840Z,4.89
2023-01-28T08:13:06.004Z,5.02
2023-01-28T08:15:35.121Z,5.14
2023-01-28T08:18:02.359Z,4.77
2023-01-28T08:20:30.073Z,5.02
2023-01-28T08:23:11.912Z,5.15
2023-01-28T08:25:38.913Z,5.10
2023-01-28T08:28:06.427Z,5.09
2023-01-28T08:30:33.558Z,5.18
2023-01-28T08:33:00.900Z,4.87
2023-01-28T08:35:28.467Z,4.46
2023-01-28T08:37:55.261Z,4.70
2023-01-28T08:40:21.861Z,5.03
2023-01-28T08:42:53.092Z,4.89
2023-01-28T08:45:27.633Z,5.15
2023-01-28T08:47:59.085Z,4.88
2023-01-28T08:50:29.579Z,4.79
2023-01-28T08:52:57.890Z,4.46
2023-01-28T08:55:25.296Z,4.60
2023-01-28T08:57:52.309Z,4.73
2023-01-28T09:00:19.703Z,4.94
2023-01-28T09:02:46.428Z,3.80
2023-01-28T09:05:13.058Z,3.76
2023-01-28T09:07:39.529Z,4.54
2023-01-28T09:10:06.955Z,3.92
2023-01-28T09:12:33.394Z,4.18
2023-01-28T09:14:59.907Z,4.88
2023-01-28T09:17:26.364Z,5.19
2023-01-28T09:19:52.842Z,4.14
2023-01-28T09:22:19.398Z,4.71
2023-01-28T09:24:45.927Z,4.69
2023-01-28T09:27:12.601Z,4.66
2023-01-28T09:29:39.102Z,4.89
2023-01-28T09:32:07.277Z,4.09
2023-01-28T09:34:34.073Z,4.15
2023-01-28T09:37:00.737Z,4.61
2023-01-28T09:39:28.511Z,5.18
2023-01-28T09:42:09.670Z,5.32
2023-01-28T09:45:01.949Z,5.30
2023-01-28T09:47:34.126Z,5.58
2023-01-28T09:50:05.923Z,5.48
2023-01-28T09:52:36.929Z,4.48
2023-01-28T09:55:18.373Z,4.98
2023-01-28T09:57:55.303Z,5.14
2023-01-28T10:00:28.109Z,5.55
2023-01-28T10:03:22.825Z,5.39
2023-01-28T10:06:33.842Z,4.58
2023-01-28T10:09:25.806Z,4.78
2023-01-28T10:12:04.721Z,4.41
2023-01-28T10:15:03.545Z,5.17
2023-01-28T10:17:45.342Z,4.25
2023-01-28T10:20:11.783Z,4.56
2023-01-28T10:22:48.401Z,5.08
2023-01-28T10:25:35.877Z,5.45
2023-01-28T10:28:02.861Z,5.45
2023-01-28T10:30:35.107Z,5.09
2023-01-28T10:33:20.619Z,5.08
2023-01-28T10:35:48.391Z,4.41
2023-01-28T10:38:20.153Z,4.71
2023-01-28T10:40:48.171Z,5.41
2023-01-28T10:43:20.811Z,4.98
2023-01-28T10:46:07.550Z,4.63
2023-01-28T10:48:38.460Z,5.35
2023-01-28T10:51:06.296Z,4.99
2023-01-28T10:53:38.838Z,5.14
2023-01-28T10:56:12.216Z,4.46
2023-01-28T10:58:58.235Z,4.97
2023-01-28T11:01:24.733Z,5.12
2023-01-28T11:03:56.405Z,5.33
2023-01-28T11:06:28.477Z,5.16
2023-01-28T11:08:55.279Z,4.94
2023-01-28T11:11:28.510Z,5.43
2023-01-28T11:13:58.393Z,5.02
2023-01-28T11:16:26.559Z,4.16
2023-01-28T11:19:05.227Z,4.31
2023-01-28T11:21:33.021Z,4.71
2023-01-28T11:24:14.034Z,4.45
2023-01-28T11:26:45.669Z,4.67
2023-01-28T11:29:31.225Z,4.42
2023-01-28T11:31:59.276Z,5.04
2023-01-28T11:34:28.755Z,5.06
2023-01-28T11:37:13.439Z,4.74
2023-01-28T11:39:39.909Z,5.11
2023-01-28T11:42:20.640Z,4.68
2023-01-28T11:44:48.783Z,5.14
2023-01-28T11:47:36.903Z,5.05
2023-01-28T11:50:24.443Z,4.65
2023-01-28T11:53:06.835Z,4.72
2023-01-28T11:56:00.386Z,4.14
2023-01-28T11:58:29.515Z,4.67
2023-01-28T12:01:25.824Z,3.80
2023-01-28T12:04:26.383Z,4.60
2023-01-28T12:07:07.751Z,4.38
2023-01-28T12:09:56.932Z,4.75
2023-01-28T12:12:45.383Z,4.94
2023-01-28T12:15:24.092Z,5.20
2023-01-28T12:18:15.171Z,4.47
2023-01-28T12:20:51.790Z,4.68
2023-01-28T12:23:46.136Z,4.38
2023-01-28T12:26:35.562Z,3.62
2023-01-28T12:29:26.442Z,4.14
2023-01-28T12:32:20.032Z,4.36
2023-01-28T12:35:07.984Z,3.87
2023-01-28T12:37:41.294Z,4.18
2023-01-28T12:40:34.885Z,3.58
2023-01-28T12:43:40.412Z,3.66
2023-01-28T12:46:22.440Z,4.81
2023-01-28T12:49:05.368Z,4.88
2023-01-28T12:51:46.506Z,5.32
2023-01-28T12:54:18.414Z,5.05
2023-01-28T12:56:58.078Z,5.32
2023-01-28T12:59:32.982Z,5.02
2023-01-28T13:02:11.319Z,5.45
2023-01-28T13:08:23.308Z,5.18
2023-01-28T13:10:51.433Z,5.18
2023-01-28T13:13:33.143Z,4.28
2023-01-28T13:16:37.987Z,5.11
2023-01-28T13:19:22.596Z,4.39
2023-01-28T13:21:50.038Z,4.90
2023-01-28T13:24:16.509Z,5.19
2023-01-28T13:26:58.762Z,4.77
2023-01-28T13:29:33.588Z,4.81
2023-01-28T13:32:30.217Z,4.78
2023-01-28T13:35:06.866Z,3.69
2023-01-28T13:37:45.179Z,3.73
2023-01-28T13:43:06.936Z,3.62
2023-01-28T13:45:33.819Z,4.66
2023-01-28T13:48:03.959Z,4.76
2023-01-28T13:50:40.007Z,3.85
2023-01-28T13:53:29.459Z,4.37
2023-01-28T13:55:58.850Z,4.34
2023-01-28T13:58:25.305Z,3.19
2023-01-28T14:01:24.307Z,3.86
2023-01-28T14:03:53.739Z,4.37
2023-01-28T14:06:45.476Z,3.48
2023-01-28T14:09:21.636Z,4.65
2023-01-28T14:11:52.442Z,4.87
2023-01-28T14:14:24.877Z,4.72
2023-01-28T14:16:58.357Z,4.43
2023-01-28T14:19:32.807Z,3.81
2023-01-28T14:21:59.602Z,4.21
2023-01-28T14:24:27.193Z,4.88
2023-01-28T14:26:58.520Z,5.18
2023-01-28T14:30:02.439Z,4.28
2023-01-28T14:32:31.480Z,4.53
2023-01-28T14:35:02.073Z,4.51
2023-01-28T14:37:31.615Z,4.69
2023-01-28T14:40:02.908Z,5.13
2023-01-28T14:42:39.235Z,4.70
2023-01-28T14:45:24.243Z,4.52
2023-01-28T14:48:18.637Z,4.20
2023-01-28T14:50:45.042Z,4.21
2023-01-28T14:53:39.604Z,4.26
2023-01-28T14:56:08.532Z,4.02
2023-01-28T14:58:40.222Z,3.18
2023-01-28T15:01:20.675Z,4.19
2023-01-28T15:03:47.262Z,4.49
2023-01-28T15:06:17.042Z,4.09
2023-01-28T15:08:43.565Z,3.82
2023-01-28T15:11:18.307Z,3.44
2023-01-28T15:13:48.357Z,4.23
2023-01-28T15:16:23.731Z,3.87
2023-01-28T15:18:51.313Z,3.44
2023-01-28T15:21:22.287Z,3.16
2023-01-28T15:23:55.334Z,3.13
2023-01-28T15:26:24.768Z,3.38
2023-01-28T15:28:52.979Z,4.12
2023-01-28T15:31:23.829Z,3.43
2023-01-28T15:34:18.640Z,3.91
2023-01-28T15:36:47.811Z,3.41
2023-01-28T15:39:20.500Z,4.09
2023-01-28T15:42:07.233Z,3.64
2023-01-28T15:44:35.864Z,3.51
2023-01-28T15:47:24.301Z,3.37
2023-01-28T15:49:54.061Z,3.08
2023-01-28T15:52:28.913Z,2.77
2023-01-28T15:54:55.483Z,3.62
2023-01-28T15:57:27.420Z,3.98
2023-01-28T16:00:06.082Z,3.87
2023-01-28T16:02:33.053Z,2.81
2023-01-28T16:05:02.601Z,3.65
2023-01-28T16:07:32.541Z,3.28
2023-01-28T16:10:03.560Z,3.56
2023-01-28T16:12:30.338Z,3.61
2023-01-28T16:15:00.515Z,3.40
2023-01-28T16:17:35.203Z,3.49
2023-01-28T16:20:08.145Z,3.77
2023-01-28T16:22:37.817Z,3.91
2023-01-28T16:25:26.133Z,3.98
2023-01-28T16:27:52.863Z,3.76
2023-01-28T16:30:19.507Z,4.03
2023-01-28T16:32:46.403Z,3.94
2023-01-28T16:35:27.308Z,3.95
2023-01-28T16:37:56.327Z,3.67
2023-01-28T16:40:24.635Z,3.80
2023-01-28T16:42:54.146Z,3.79
2023-01-28T16:45:25.337Z,3.67
2023-01-28T16:47:53.033Z,3.72
2023-01-28T16:50:21.965Z,3.72
2023-01-28T16:52:51.055Z,3.46
2023-01-28T16:55:20.405Z,3.45
2023-01-28T16:57:49.762Z,3.65
2023-01-28T17:00:23.201Z,3.38
2023-01-28T17:02:51.014Z,3.52
2023-01-28T17:05:18.582Z,3.51
2023-01-28T17:07:48.679Z,3.56
2023-01-28T17:10:16.735Z,3.58
2023-01-28T17:12:43.942Z,3.59
2023-01-28T17:15:10.901Z,3.52
2023-01-28T17:17:37.368Z,3.56
2023-01-28T17:20:04.678Z,3.52
2023-01-28T17:22:31.083Z,3.53
2023-01-28T17:24:57.675Z,3.48
2023-01-28T17:27:24.136Z,3.43
2023-01-28T17:29:52.402Z,3.19
2023-01-28T17:32:19.007Z,3.13
2023-01-28T17:34:47.475Z,3.32
2023-01-28T17:37:14.039Z,3.29
2023-01-28T17:39:40.487Z,3.23
2023-01-28T17:42:06.946Z,3.27
2023-01-28T17:44:33.441Z,3.06
2023-01-28T17:46:59.905Z,3.22
2023-01-28T17:49:26.357Z,3.30
2023-01-28T17:51:53.132Z,3.23
2023-01-28T17:54:19.813Z,3.17
2023-01-28T17:56:46.308Z,3.17
2023-01-28T17:59:16.845Z,3.16
2023-01-28T18:01:44.783Z,3.23
2023-01-28T18:04:12.972Z,3.22
2023-01-28T18:06:39.456Z,3.17
2023-01-28T18:09:07.006Z,3.09
2023-01-28T18:11:33.534Z,3.18
2023-01-28T18:14:00.042Z,3.07
2023-01-28T18:16:26.829Z,3.10
2023-01-28T18:18:53.338Z,3.08
2023-01-28T18:21:21.641Z,3.06
2023-01-28T18:23:48.172Z,3.07
2023-01-28T18:26:14.590Z,3.00
2023-01-28T18:28:41.029Z,3.08
2023-01-28T18:31:08.318Z,3.07
2023-01-28T18:33:34.889Z,3.07
2023-01-28T18:36:01.369Z,3.08
2023-01-28T18:38:27.849Z,2.96
2023-01-28T18:40:55.655Z,3.02
2023-01-28T18:43:22.467Z,3.03
2023-01-28T18:45:51.756Z,3.04
2023-01-28T18:48:19.325Z,3.06
2023-01-28T18:50:53.094Z,2.94
2023-01-28T18:53:20.620Z,2.99
2023-01-28T18:55:47.151Z,2.97
2023-01-28T18:58:13.620Z,3.00
2023-01-28T19:00:40.181Z,2.94
2023-01-28T19:03:06.689Z,2.96
2023-01-28T19:05:37.733Z,2.94
2023-01-28T19:08:05.571Z,2.98
2023-01-28T19:10:31.991Z,2.93
2023-01-28T19:12:58.495Z,2.92
2023-01-28T19:15:24.952Z,3.01
2023-01-28T19:17:51.428Z,2.88
2023-01-28T19:20:18.360Z,2.96
2023-01-28T19:22:45.479Z,2.57
2023-01-28T19:25:12.292Z,2.66
2023-01-28T19:27:39.278Z,2.84
2023-01-28T19:30:06.563Z,2.78
2023-01-28T19:32:33.040Z,2.75
2023-01-28T19:34:59.508Z,2.80
2023-01-28T19:37:25.989Z,2.87
2023-01-28T19:39:52.432Z,2.79
2023-01-28T19:42:18.964Z,2.73
2023-01-28T19:44:45.404Z,2.68
2023-01-28T19:47:11.862Z,2.59
2023-01-28T19:49:38.282Z,2.58
2023-01-28T19:52:09.053Z,2.57
2023-01-28T19:54:35.543Z,2.56
2023-01-28T19:57:01.943Z,2.41
2023-01-28T19:59:28.374Z,2.43
2023-01-28T20:01:54.830Z,2.50
2023-01-28T20:04:21.326Z,2.67
2023-01-28T20:06:48.875Z,2.62
2023-01-28T20:09:17.105Z,2.54
2023-01-28T20:11:43.550Z,2.69
2023-01-28T20:14:10.057Z,2.54
2023-01-28T20:16:36.616Z,2.64
2023-01-28T20:19:08.833Z,2.57
2023-01-28T20:21:35.614Z,2.63
2023-01-28T20:24:03.155Z,2.74
2023-01-28T20:26:32.723Z,2.67
2023-01-28T20:29:07.827Z,2.41
2023-01-28T20:31:35.123Z,2.29
2023-01-28T20:34:02.103Z,2.56
2023-01-28T20:36:28.548Z,2.56
2023-01-28T20:38:55.038Z,2.43
2023-01-28T20:41:24.366Z,2.45
2023-01-28T20:43:52.471Z,2.26
2023-01-28T20:46:20.411Z,2.55
2023-01-28T20:48:47.884Z,2.56
2023-01-28T20:51:26.519Z,2.64
2023-01-28T20:53:53.912Z,2.54
2023-01-28T20:56:22.939Z,2.50
2023-01-28T20:58:55.255Z,2.51
2023-01-28T21:01:24.977Z,2.57
2023-01-28T21:03:52.159Z,2.51
2023-01-28T21:06:19.358Z,2.54
2023-01-28T21:08:46.332Z,2.51
2023-01-28T21:11:13.762Z,2.55
2023-01-28T21:13:40.711Z,2.55
2023-01-28T21:16:07.584Z,2.53
2023-01-28T21:18:34.075Z,2.48
2023-01-28T21:21:10.025Z,2.48
2023-01-28T21:23:36.489Z,2.36
2023-01-28T21:26:04.566Z,2.39
2023-01-28T21:28:31.423Z,2.38
2023-01-28T21:31:13.682Z,2.44
2023-01-28T21:33:40.295Z,2.41
2023-01-28T21:36:14.593Z,2.38
2023-01-28T21:38:41.842Z,2.42
2023-01-28T21:41:09.413Z,2.39
2023-01-28T21:43:36.426Z,2.17
2023-01-28T21:46:03.551Z,2.05
2023-01-28T21:48:30.679Z,2.29
2023-01-28T21:51:22.536Z,2.13
2023-01-28T21:53:49.338Z,2.26
2023-01-28T21:56:15.742Z,1.64
2023-01-28T21:59:00.562Z,1.03
2023-01-28T22:01:27.010Z,1.81
2023-01-28T22:03:53.434Z,2.07
2023-01-28T22:06:19.923Z,2.25
2023-01-28T22:08:46.384Z,2.15
2023-01-28T22:11:12.923Z,2.08
2023-01-28T22:13:39.589Z,2.12
2023-01-28T22:16:07.520Z,2.27
2023-01-28T22:18:33.995Z,2.15
2023-01-28T22:21:02.642Z,2.21
2023-01-28T22:23:29.313Z,2.03
2023-01-28T22:25:56.868Z,2.14
2023-01-28T22:28:24.246Z,2.12
2023-01-28T22:30:50.860Z,2.16
2023-01-28T22:33:17.422Z,2.20
2023-01-28T22:35:44.144Z,1.99
2023-01-28T22:38:10.873Z,0.85
2023-01-28T22:40:37.328Z,1.62
2023-01-28T22:43:03.967Z,1.99
2023-01-28T22:45:30.411Z,0.78
2023-01-28T22:47:56.827Z,1.59
2023-01-28T22:50:23.255Z,1.56
2023-01-28T22:52:49.852Z,1.29
2023-01-28T22:55:16.673Z,1.59
2023-01-28T22:57:43.120Z,1.93
2023-01-28T23:00:13.227Z,2.03
2023-01-28T23:02:40.123Z,2.03
2023-01-28T23:05:07.140Z,1.84
2023-01-28T23:07:33.603Z,1.28
2023-01-28T23:10:00.112Z,1.92
2023-01-28T23:12:26.532Z,1.36
2023-01-28T23:15:11.517Z,1.56
2023-01-28T23:17:56.421Z,2.07
2023-01-28T23:20:41.233Z,1.91
2023-01-28T23:23:33.884Z,2.17
2023-01-28T23:26:00.656Z,2.07
2023-01-28T23:28:27.415Z,1.63
2023-01-28T23:30:53.880Z,2.20
2023-01-28T23:33:20.326Z,2.06
2023-01-28T23:35:46.980Z,1.96
2023-01-28T23:38:13.437Z,2.16
2023-01-28T23:40:39.889Z,2.37
2023-01-28T23:43:06.306Z,2.56
2023-01-28T23:45:32.729Z,2.38
2023-01-28T23:47:59.166Z,2.58
2023-01-28T23:50:25.542Z,2.64
2023-01-28T23:52:52.030Z,2.74
2023-01-28T23:55:18.513Z,2.73
2023-01-28T23:57:44.924Z,2.64
